Baltimore/Washington International Thurgood Marshal Airport
KBWI : now visible

Airfield :











YOU CAN JOIN US ON...

 
LOGIN :

Register | Disclaimer

   EN    FR    IT 

 









Legend :    VFR   Marginal VFR   IFR   Intensive IFR   Very Intensive IFR
Visi :
Ceiling :
>= 8 km
>= 3000ft
5 to 8 km
1000 to 3000 ft
1500m to 5 km
500 to 1000 ft
800 to 1500m
200 to 500 ft
< 800m
< 200 ft
Symbols :   Thunderstorms  Fog  Heavy snow  Heavy precipitations  Wind > 20 kt






- Airport Elevation : 146 ft
- IATA code : BWI


KBWI - Baltimore/Washington International Thurgood Marshal

CURRENT METAR :
  • 191554Z 30009KT 10SM FEW100 BKN250 07/M07 A3033 RMK AO2 SLP270 T00721067

EXPIRED METARs :
  • 191454Z 29012KT 10SM SCT100 BKN250 06/M06 A3032 RMK AO2 SLP268 T00611056 51030
  • 191354Z 30008KT 250V330 10SM SCT100 BKN250 06/M07 A3031 RMK AO2 SLP265 T00611067
  • 191254Z 30010G15KT 10SM BKN100 BKN250 06/M05 A3028 RMK AO2 SLP253 T00611050

TAF KBWI
Valid from the 19 at 15:00 until the 20 at 18:00 UTC


191500Z 1915/2018 30012G19KT P6SM SCT100 BKN250
FM191900 32010G17KT P6SM SCT250
FM200000 34005KT P6SM SCT200
FM201100 36004KT P6SM BKN200
FM201700 33005KT P6SM BKN090



MET'MAP, your aeronautical weather chart ! - Copyright ORBIFLY December 2007 - Disclaimer

ORBIFLY MET'MAP TEAM :

Programming & Development : Alexandra Zaïnal
Concept & original design : Baudouin d'Aumeries
Assistance for programming : Marc-Olivier Méhu
Technical & hardware support : Manuel Goepfert

Contact : metmap@orbifly.com




SOURCES & CREDITS :

   NOAA       Earth
Advisory